Time;durP1;ratioP1;P1;durP2;ratioP2;P2;SDS_P1;SDS_P2;PMS_P1;PMS_P2;Temp;Humidity;BMP_temperature;BMP_pressure;BME280_temperature;BME280_humidity;BME280_pressure;Samples;Min_cycle;Max_cycle;Signal;HPM_P1;HPM_P2
2023/02/16 00:01:14;;;;;;;17.15;11.68;;;;;;;;;;5051831;28;20036;-67
2023/02/16 00:03:40;;;;;;;15.10;12.60;;;;;;;;;;5050672;28;20021;-67
2023/02/16 00:06:06;;;;;;;16.30;12.48;;;;;;;;;;5051362;28;20036;-67
2023/02/16 00:08:32;;;;;;;15.13;11.80;;;;;;;;;;5050902;28;20029;-67
2023/02/16 00:13:43;;;;;;;14.88;11.77;;;;;;;;;;5051403;28;20504;-67
2023/02/16 00:16:14;;;;;;;17.35;13.00;;;;;;;;;;5050806;28;20021;-66
2023/02/16 00:18:40;;;;;;;15.52;13.43;;;;;;;;;;5051263;28;20029;-67
2023/02/16 00:21:06;;;;;;;15.50;12.48;;;;;;;;;;5050795;28;20378;-67
2023/02/16 00:23:32;;;;;;;18.92;13.13;;;;;;;;;;5051302;28;20040;-68
2023/02/16 00:25:58;;;;;;;14.95;12.38;;;;;;;;;;5049161;28;20060;-67
2023/02/16 00:28:24;;;;;;;15.27;12.57;;;;;;;;;;5050855;28;20051;-66
2023/02/16 00:30:50;;;;;;;18.58;12.50;;;;;;;;;;5051356;28;20550;-67
2023/02/16 00:33:18;;;;;;;16.63;12.75;;;;;;;;;;5050974;28;20040;-67
2023/02/16 00:35:44;;;;;;;18.15;13.35;;;;;;;;;;5050561;28;20501;-67
2023/02/16 00:38:11;;;;;;;16.88;12.70;;;;;;;;;;5050781;28;20091;-67
2023/02/16 00:40:37;;;;;;;15.27;12.45;;;;;;;;;;5050286;28;20028;-66
2023/02/16 00:43:03;;;;;;;17.42;12.80;;;;;;;;;;5050999;28;20048;-67
2023/02/16 00:45:30;;;;;;;14.63;12.73;;;;;;;;;;5050118;28;20492;-66
2023/02/16 00:47:56;;;;;;;15.05;12.88;;;;;;;;;;5050746;28;20021;-66
2023/02/16 00:50:26;;;;;;;16.90;13.00;;;;;;;;;;5050498;28;20040;-64
2023/02/16 00:52:52;;;;;;;17.15;13.05;;;;;;;;;;5050572;28;20047;-65
2023/02/16 00:55:20;;;;;;;18.48;13.38;;;;;;;;;;5050601;28;20025;-66
2023/02/16 00:57:46;;;;;;;17.02;13.55;;;;;;;;;;5050394;28;20029;-67
2023/02/16 01:00:15;;;;;;;16.33;12.77;;;;;;;;;;5050138;28;20366;-66
2023/02/16 01:02:42;;;;;;;17.25;13.07;;;;;;;;;;5049985;28;20095;-67
2023/02/16 01:05:08;;;;;;;15.95;13.13;;;;;;;;;;5050569;28;20075;-65
2023/02/16 01:13:03;;;;;;;15.05;12.80;;;;;;;;;;5030626;28;20471;-66
2023/02/16 01:15:29;;;;;;;14.93;12.40;;;;;;;;;;5030594;28;20029;-66
2023/02/16 01:17:55;;;;;;;16.45;12.60;;;;;;;;;;5030787;28;20069;-66
2023/02/16 01:20:22;;;;;;;15.48;12.77;;;;;;;;;;5035038;28;20013;-66
2023/02/16 01:22:49;;;;;;;16.27;13.45;;;;;;;;;;5051040;28;20092;-66
2023/02/16 01:25:15;;;;;;;15.68;11.90;;;;;;;;;;5050673;28;20104;-66
2023/02/16 01:27:41;;;;;;;18.27;13.63;;;;;;;;;;5050467;28;20086;-66
2023/02/16 01:30:11;;;;;;;16.60;12.73;;;;;;;;;;5050343;28;20028;-66
2023/02/16 01:32:37;;;;;;;15.73;12.55;;;;;;;;;;5050229;28;20472;-66
2023/02/16 01:35:04;;;;;;;15.32;12.40;;;;;;;;;;5050558;28;20028;-65
2023/02/16 01:37:30;;;;;;;14.77;13.00;;;;;;;;;;5050105;28;20028;-66
2023/02/16 01:39:56;;;;;;;18.65;13.68;;;;;;;;;;5050134;28;20033;-66
2023/02/16 01:42:25;;;;;;;14.90;12.68;;;;;;;;;;5050208;28;20029;-66
2023/02/16 01:44:51;;;;;;;14.20;12.40;;;;;;;;;;5050447;28;20036;-65
2023/02/16 01:47:23;;;;;;;14.75;12.82;;;;;;;;;;5050666;28;20481;-65
2023/02/16 01:49:49;;;;;;;15.55;12.32;;;;;;;;;;5050312;28;20021;-66
2023/02/16 01:52:33;;;;;;;14.80;12.55;;;;;;;;;;5050327;28;20025;-66
2023/02/16 01:55:04;;;;;;;15.55;12.82;;;;;;;;;;5049634;28;20032;-65
2023/02/16 01:57:30;;;;;;;15.88;12.23;;;;;;;;;;5049980;28;20017;-66
2023/02/16 01:59:55;;;;;;;15.05;12.30;;;;;;;;;;5049921;28;20107;-65
2023/02/16 02:02:21;;;;;;;16.80;12.60;;;;;;;;;;5049798;28;20021;-66
2023/02/16 02:07:59;;;;;;;13.73;12.15;;;;;;;;;;5049241;28;20520;-65
2023/02/16 02:10:38;;;;;;;14.77;12.15;;;;;;;;;;5049394;28;20029;-65
2023/02/16 02:13:04;;;;;;;15.98;12.40;;;;;;;;;;5050423;28;20045;-65
2023/02/16 02:15:31;;;;;;;14.98;12.60;;;;;;;;;;5052012;28;20031;-65
2023/02/16 02:17:57;;;;;;;14.02;11.70;;;;;;;;;;5053875;28;20025;-65
2023/02/16 02:23:29;;;;;;;15.38;12.30;;;;;;;;;;5052923;28;20382;-65
2023/02/16 02:23:41;;;;;;;14.30;11.82;;;;;;;;;;5053427;28;20485;-65
2023/02/16 02:26:19;;;;;;;14.52;11.95;;;;;;;;;;5049814;28;20052;-65
2023/02/16 02:28:54;;;;;;;13.80;11.50;;;;;;;;;;5052980;28;20029;-65
2023/02/16 02:31:34;;;;;;;13.70;11.43;;;;;;;;;;5053340;28;20031;-65
2023/02/16 02:34:18;;;;;;;13.65;11.23;;;;;;;;;;5053226;28;20064;-65
2023/02/16 02:36:44;;;;;;;14.40;11.93;;;;;;;;;;5043096;28;20021;-65
2023/02/16 02:39:29;;;;;;;15.50;11.43;;;;;;;;;;5052369;28;20025;-64
2023/02/16 02:42:04;;;;;;;13.95;11.88;;;;;;;;;;5052963;28;20032;-65
2023/02/16 02:44:31;;;;;;;14.10;11.73;;;;;;;;;;5052313;28;20471;-65
2023/02/16 02:46:57;;;;;;;13.77;11.55;;;;;;;;;;5052803;28;20488;-65
2023/02/16 02:49:23;;;;;;;12.25;10.88;;;;;;;;;;5052709;28;20067;-64
2023/02/16 02:51:49;;;;;;;13.25;11.00;;;;;;;;;;5053116;28;20064;-64
2023/02/16 03:02:44;;;;;;;14.00;11.98;;;;;;;;;;5052515;28;20155;-65
2023/02/16 03:05:12;;;;;;;14.75;11.93;;;;;;;;;;5052480;28;20029;-64
2023/02/16 03:07:47;;;;;;;13.20;10.55;;;;;;;;;;5051799;28;20048;-64
2023/02/16 03:13:00;;;;;;;17.50;12.05;;;;;;;;;;5052571;28;20082;-64
2023/02/16 03:15:28;;;;;;;14.20;11.20;;;;;;;;;;5052389;28;20029;-64
2023/02/16 03:29:14;;;;;;;13.37;10.30;;;;;;;;;;5051741;28;20067;-64
2023/02/16 03:31:40;;;;;;;17.80;12.15;;;;;;;;;;5051897;28;20049;-64
2023/02/16 03:34:07;;;;;;;11.65;10.18;;;;;;;;;;5034217;28;20561;-65
2023/02/16 03:36:34;;;;;;;12.55;10.57;;;;;;;;;;5051746;28;20096;-64
2023/02/16 03:39:01;;;;;;;12.70;10.73;;;;;;;;;;5051909;28;20068;-64
2023/02/16 03:41:31;;;;;;;13.45;11.00;;;;;;;;;;5051664;28;20025;-64
2023/02/16 03:43:57;;;;;;;12.23;10.93;;;;;;;;;;5052126;28;20063;-64
2023/02/16 03:46:23;;;;;;;13.80;10.70;;;;;;;;;;5051526;28;20017;-64
2023/02/16 03:48:49;;;;;;;13.70;10.65;;;;;;;;;;5052335;28;20036;-64
2023/02/16 03:51:15;;;;;;;12.90;10.25;;;;;;;;;;5051111;28;20389;-64
2023/02/16 03:53:41;;;;;;;13.15;10.85;;;;;;;;;;5051277;28;20116;-64
2023/02/16 03:56:07;;;;;;;12.77;10.98;;;;;;;;;;5051262;28;20035;-64
2023/02/16 03:58:33;;;;;;;13.43;10.82;;;;;;;;;;5051711;28;20496;-64
2023/02/16 04:00:59;;;;;;;13.18;10.43;;;;;;;;;;5051421;28;20107;-64
2023/02/16 04:03:26;;;;;;;11.90;9.95;;;;;;;;;;5051253;28;20107;-64
2023/02/16 04:05:51;;;;;;;11.10;9.70;;;;;;;;;;5051339;28;20036;-63
2023/02/16 04:08:17;;;;;;;13.63;9.90;;;;;;;;;;5051947;28;20023;-64
2023/02/16 04:10:43;;;;;;;11.15;9.45;;;;;;;;;;5051078;28;20513;-64
2023/02/16 04:13:09;;;;;;;12.57;9.65;;;;;;;;;;5051114;28;20078;-64
2023/02/16 04:15:35;;;;;;;12.80;10.43;;;;;;;;;;5051397;28;20053;-64
2023/02/16 04:18:02;;;;;;;9.68;8.65;;;;;;;;;;5051525;28;20539;-64
2023/02/16 04:20:29;;;;;;;12.18;10.23;;;;;;;;;;5051286;28;20048;-64
2023/02/16 04:22:55;;;;;;;10.63;9.32;;;;;;;;;;5051438;28;20033;-64
2023/02/16 04:25:21;;;;;;;13.55;11.13;;;;;;;;;;5051267;28;20070;-64
2023/02/16 04:27:48;;;;;;;11.70;10.30;;;;;;;;;;5051791;28;20495;-63
2023/02/16 04:30:16;;;;;;;12.45;10.43;;;;;;;;;;5051268;28;20029;-64
2023/02/16 04:32:42;;;;;;;10.50;8.93;;;;;;;;;;5050814;28;20187;-64
2023/02/16 04:35:08;;;;;;;11.98;10.68;;;;;;;;;;5051086;28;20028;-63
2023/02/16 04:37:35;;;;;;;12.07;9.85;;;;;;;;;;5050600;28;20040;-63
2023/02/16 04:40:01;;;;;;;11.65;9.73;;;;;;;;;;5050883;28;20439;-63
2023/02/16 04:42:27;;;;;;;13.60;9.82;;;;;;;;;;5050956;28;20116;-64
2023/02/16 04:44:53;;;;;;;11.85;10.07;;;;;;;;;;5050767;28;20100;-64
2023/02/16 04:47:19;;;;;;;12.38;10.18;;;;;;;;;;5051434;28;20477;-63
2023/02/16 04:49:45;;;;;;;11.40;9.73;;;;;;;;;;5050454;28;20025;-63
2023/02/16 04:52:11;;;;;;;14.55;10.43;;;;;;;;;;5050343;28;20048;-63
2023/02/16 04:54:37;;;;;;;14.75;10.48;;;;;;;;;;5050428;28;20052;-63
2023/02/16 04:57:03;;;;;;;11.45;9.63;;;;;;;;;;5050887;28;20063;-63
2023/02/16 04:59:29;;;;;;;13.68;10.43;;;;;;;;;;5050433;28;20021;-64
2023/02/16 05:01:56;;;;;;;11.48;9.38;;;;;;;;;;5050645;28;20381;-64
2023/02/16 05:04:23;;;;;;;12.82;9.50;;;;;;;;;;5050744;28;20025;-63
2023/02/16 05:06:49;;;;;;;11.48;9.95;;;;;;;;;;5050335;28;20025;-64
2023/02/16 05:09:15;;;;;;;11.73;9.60;;;;;;;;;;5049966;28;20021;-63
2023/02/16 05:14:43;;;;;;;11.40;8.63;;;;;;;;;;5050426;28;20052;-64
2023/02/16 05:17:22;;;;;;;11.38;9.77;;;;;;;;;;5030929;28;20034;-64
2023/02/16 05:19:49;;;;;;;11.73;10.10;;;;;;;;;;5031282;28;20029;-63
2023/02/16 05:22:16;;;;;;;11.55;9.85;;;;;;;;;;5030669;28;20017;-63
2023/02/16 05:24:42;;;;;;;11.20;8.63;;;;;;;;;;5030377;28;20022;-63
2023/02/16 05:27:10;;;;;;;10.65;8.60;;;;;;;;;;5032785;28;20021;-63
2023/02/16 05:29:36;;;;;;;10.60;8.82;;;;;;;;;;5050348;28;20087;-63
2023/02/16 05:32:02;;;;;;;11.43;9.18;;;;;;;;;;5050207;28;20509;-63
2023/02/16 05:34:28;;;;;;;10.73;9.02;;;;;;;;;;5050402;28;20029;-63
2023/02/16 05:36:54;;;;;;;11.73;9.70;;;;;;;;;;5050483;28;20062;-63
2023/02/16 05:39:21;;;;;;;11.95;9.13;;;;;;;;;;5050799;28;20419;-63
2023/02/16 05:41:48;;;;;;;10.57;8.63;;;;;;;;;;5050540;28;20025;-63
2023/02/16 05:44:14;;;;;;;11.20;9.05;;;;;;;;;;5050349;28;20384;-63
2023/02/16 05:46:40;;;;;;;9.93;8.77;;;;;;;;;;5049847;28;20029;-63
2023/02/16 05:49:07;;;;;;;10.57;8.77;;;;;;;;;;5050735;28;20033;-63
2023/02/16 05:51:33;;;;;;;11.63;9.07;;;;;;;;;;5043855;28;20036;-63
2023/02/16 05:53:59;;;;;;;10.90;8.80;;;;;;;;;;5053909;28;20033;-63
2023/02/16 05:56:26;;;;;;;10.95;9.57;;;;;;;;;;5053079;28;20035;-63
2023/02/16 05:58:52;;;;;;;10.63;8.90;;;;;;;;;;5054539;28;20028;-63
2023/02/16 06:01:19;;;;;;;11.57;8.93;;;;;;;;;;5053869;28;20021;-63
2023/02/16 06:03:45;;;;;;;12.18;9.23;;;;;;;;;;5054088;28;20105;-63
2023/02/16 06:06:11;;;;;;;9.73;8.52;;;;;;;;;;5053571;28;20033;-63
2023/02/16 06:08:38;;;;;;;10.23;8.70;;;;;;;;;;5053211;28;20116;-63
2023/02/16 06:11:34;;;;;;;10.88;9.55;;;;;;;;;;5053762;28;20501;-63
2023/02/16 06:13:58;;;;;;;10.55;9.00;;;;;;;;;;5053509;28;20037;-63
2023/02/16 06:16:27;;;;;;;10.10;8.20;;;;;;;;;;5053306;28;20045;-63
2023/02/16 06:18:53;;;;;;;9.95;8.57;;;;;;;;;;5054140;28;20029;-63
2023/02/16 06:21:20;;;;;;;11.07;8.95;;;;;;;;;;5053852;28;20032;-63
2023/02/16 06:23:46;;;;;;;10.02;8.23;;;;;;;;;;5052951;28;20108;-63
2023/02/16 06:26:12;;;;;;;10.60;8.50;;;;;;;;;;5052984;28;20562;-63
2023/02/16 06:28:38;;;;;;;9.75;8.15;;;;;;;;;;5053357;28;20137;-63
2023/02/16 06:31:04;;;;;;;9.40;7.78;;;;;;;;;;5053072;28;20100;-63
2023/02/16 06:33:30;;;;;;;9.95;8.32;;;;;;;;;;5052694;28;20047;-63
2023/02/16 06:35:56;;;;;;;9.70;8.27;;;;;;;;;;5053322;28;20035;-63
2023/02/16 06:38:22;;;;;;;11.35;8.27;;;;;;;;;;5052789;28;20025;-63
2023/02/16 06:40:51;;;;;;;10.93;8.65;;;;;;;;;;5053368;28;20448;-62
2023/02/16 06:43:17;;;;;;;11.25;7.95;;;;;;;;;;5052681;28;20102;-63
2023/02/16 06:45:43;;;;;;;9.95;7.90;;;;;;;;;;5052461;28;20094;-63
2023/02/16 06:48:09;;;;;;;9.13;8.02;;;;;;;;;;5052489;28;20108;-63
2023/02/16 06:50:35;;;;;;;10.10;8.35;;;;;;;;;;5052274;28;20452;-64
2023/02/16 06:53:01;;;;;;;8.90;7.53;;;;;;;;;;5053006;28;20500;-63
2023/02/16 06:55:27;;;;;;;10.00;7.70;;;;;;;;;;5052957;28;20049;-64
2023/02/16 06:57:53;;;;;;;10.57;7.82;;;;;;;;;;5052930;28;20029;-63
2023/02/16 07:00:19;;;;;;;10.27;8.60;;;;;;;;;;5053069;28;20075;-63
2023/02/16 07:02:45;;;;;;;9.98;7.55;;;;;;;;;;5051112;28;20130;-63
2023/02/16 07:05:11;;;;;;;9.35;8.20;;;;;;;;;;5052998;28;20029;-63
2023/02/16 07:07:37;;;;;;;11.70;8.48;;;;;;;;;;5052562;28;20040;-63
2023/02/16 07:10:04;;;;;;;10.32;7.95;;;;;;;;;;5052817;28;20028;-63
2023/02/16 07:12:29;;;;;;;9.80;8.20;;;;;;;;;;5051927;28;20045;-63
2023/02/16 07:14:55;;;;;;;9.88;7.95;;;;;;;;;;5052325;28;20477;-62
2023/02/16 07:17:21;;;;;;;12.82;8.65;;;;;;;;;;5052047;28;20048;-63
2023/02/16 07:19:47;;;;;;;9.45;7.53;;;;;;;;;;5052071;28;20082;-63
2023/02/16 07:22:14;;;;;;;12.43;8.63;;;;;;;;;;5051781;28;20035;-63
2023/02/16 07:24:40;;;;;;;11.50;9.50;;;;;;;;;;5051512;28;20389;-63
2023/02/16 07:27:07;;;;;;;15.18;10.38;;;;;;;;;;5051064;28;20025;-63
2023/02/16 07:29:33;;;;;;;14.77;9.60;;;;;;;;;;5051372;28;20021;-64
2023/02/16 07:31:59;;;;;;;15.95;9.00;;;;;;;;;;5050203;28;20029;-62
2023/02/16 07:34:25;;;;;;;17.92;10.02;;;;;;;;;;5050996;28;20029;-60
2023/02/16 07:36:51;;;;;;;20.10;10.85;;;;;;;;;;5050929;28;20020;-62
2023/02/16 07:39:17;;;;;;;15.73;10.68;;;;;;;;;;5049500;28;20029;-61
2023/02/16 07:41:43;;;;;;;13.35;9.60;;;;;;;;;;5051256;28;20418;-63
2023/02/16 07:44:09;;;;;;;13.57;9.88;;;;;;;;;;5048722;28;20064;-63
2023/02/16 07:46:35;;;;;;;14.60;10.20;;;;;;;;;;5051229;28;20017;-62
2023/02/16 07:49:01;;;;;;;12.55;9.63;;;;;;;;;;5051416;28;20052;-67
2023/02/16 07:51:29;;;;;;;16.05;10.18;;;;;;;;;;5046954;28;20088;-67
2023/02/16 07:53:56;;;;;;;14.38;9.73;;;;;;;;;;5050958;28;20028;-66
2023/02/16 07:56:29;;;;;;;12.25;8.80;;;;;;;;;;5051522;28;20481;-66
2023/02/16 07:58:55;;;;;;;18.27;9.82;;;;;;;;;;5049331;28;20052;-66
2023/02/16 08:01:22;;;;;;;14.00;9.43;;;;;;;;;;5051873;28;20112;-67
2023/02/16 08:03:48;;;;;;;15.00;9.27;;;;;;;;;;5052147;28;20032;-67
2023/02/16 08:06:14;;;;;;;11.18;8.73;;;;;;;;;;5051653;28;20037;-66
2023/02/16 08:08:40;;;;;;;16.55;10.20;;;;;;;;;;5051476;28;20021;-67
2023/02/16 08:11:10;;;;;;;12.98;9.07;;;;;;;;;;5051699;28;20496;-67
2023/02/16 08:13:36;;;;;;;10.90;8.82;;;;;;;;;;5050344;28;20033;-66
2023/02/16 08:16:02;;;;;;;12.85;8.40;;;;;;;;;;5049589;28;20037;-66
2023/02/16 08:18:29;;;;;;;11.82;8.07;;;;;;;;;;5050788;28;20099;-67
2023/02/16 08:20:56;;;;;;;10.68;8.02;;;;;;;;;;5050963;28;20388;-66
2023/02/16 08:23:22;;;;;;;12.32;8.35;;;;;;;;;;5051447;28;20025;-66
2023/02/16 08:25:48;;;;;;;13.48;8.52;;;;;;;;;;5051679;28;20021;-66
2023/02/16 08:28:14;;;;;;;12.88;8.73;;;;;;;;;;5051457;28;20473;-67
2023/02/16 08:30:41;;;;;;;10.68;7.70;;;;;;;;;;5051172;28;20027;-67
2023/02/16 08:33:07;;;;;;;10.68;7.32;;;;;;;;;;5051108;28;20036;-67
2023/02/16 08:35:37;;;;;;;11.57;8.30;;;;;;;;;;5050985;28;20075;-67
2023/02/16 08:38:04;;;;;;;12.15;8.30;;;;;;;;;;5050897;28;20032;-66
2023/02/16 08:40:30;;;;;;;15.85;8.48;;;;;;;;;;5050573;28;20075;-66
2023/02/16 08:42:56;;;;;;;12.13;8.43;;;;;;;;;;5051196;28;20029;-66
2023/02/16 08:45:22;;;;;;;13.05;9.10;;;;;;;;;;5051214;28;20113;-64
2023/02/16 08:47:48;;;;;;;11.40;8.05;;;;;;;;;;5051293;28;20028;-66
2023/02/16 08:50:15;;;;;;;13.30;7.93;;;;;;;;;;5051209;28;20107;-67
2023/02/16 08:52:41;;;;;;;11.50;7.85;;;;;;;;;;5050867;28;20044;-67
2023/02/16 08:55:07;;;;;;;12.82;8.02;;;;;;;;;;5050600;28;20064;-66
2023/02/16 08:57:34;;;;;;;12.93;8.25;;;;;;;;;;5050795;28;20032;-66
2023/02/16 09:02:45;;;;;;;12.90;8.15;;;;;;;;;;5050877;28;20571;-66
2023/02/16 09:05:12;;;;;;;10.93;7.57;;;;;;;;;;5050357;28;20029;-66
2023/02/16 09:07:38;;;;;;;11.38;7.68;;;;;;;;;;5050381;28;20466;-66
2023/02/16 09:10:04;;;;;;;12.43;8.05;;;;;;;;;;5050883;28;20040;-67
2023/02/16 09:12:34;;;;;;;9.00;7.18;;;;;;;;;;5050287;28;20045;-66
2023/02/16 09:15:00;;;;;;;11.75;7.90;;;;;;;;;;5050859;28;20385;-66
2023/02/16 09:17:27;;;;;;;10.20;6.80;;;;;;;;;;5049898;28;20040;-66
2023/02/16 09:19:53;;;;;;;10.30;7.70;;;;;;;;;;5050801;28;20025;-66
2023/02/16 09:22:20;;;;;;;12.60;8.10;;;;;;;;;;5051043;28;20025;-65
2023/02/16 09:24:46;;;;;;;11.70;7.18;;;;;;;;;;5053596;28;20032;-66
2023/02/16 09:27:12;;;;;;;11.00;7.07;;;;;;;;;;5054968;28;20033;-64
2023/02/16 09:29:39;;;;;;;9.82;7.25;;;;;;;;;;5054614;28;20104;-66
2023/02/16 09:32:05;;;;;;;9.00;7.32;;;;;;;;;;5054542;28;20071;-66
2023/02/16 09:34:31;;;;;;;11.05;7.70;;;;;;;;;;5054630;28;20028;-66
2023/02/16 09:36:57;;;;;;;10.43;7.75;;;;;;;;;;5054779;28;20033;-66
2023/02/16 09:39:23;;;;;;;14.57;7.95;;;;;;;;;;5054580;28;20021;-65
2023/02/16 09:42:04;;;;;;;8.75;6.93;;;;;;;;;;5055018;28;20490;-67
2023/02/16 09:45:10;;;;;;;9.95;7.25;;;;;;;;;;5054440;28;20108;-64
2023/02/16 09:47:43;;;;;;;10.57;8.13;;;;;;;;;;4947255;29;20114;-65
2023/02/16 09:50:14;;;;;;;9.27;7.30;;;;;;;;;;4935356;29;20028;-66
2023/02/16 09:52:43;;;;;;;8.57;7.22;;;;;;;;;;5001742;28;20052;-66
2023/02/16 09:55:23;;;;;;;11.30;7.53;;;;;;;;;;5054154;28;20021;-66
2023/02/16 09:57:54;;;;;;;10.98;7.57;;;;;;;;;;5053381;28;20029;-66
2023/02/16 10:00:25;;;;;;;11.38;7.65;;;;;;;;;;5054556;28;20033;-66
2023/02/16 10:03:12;;;;;;;11.65;6.68;;;;;;;;;;5054482;28;20031;-65
2023/02/16 10:05:47;;;;;;;9.30;7.30;;;;;;;;;;5053944;28;20108;-66
2023/02/16 10:08:23;;;;;;;9.88;7.40;;;;;;;;;;5054192;28;20094;-65
2023/02/16 10:13:56;;;;;;;8.88;6.78;;;;;;;;;;5022701;28;20120;-64
2023/02/16 10:16:27;;;;;;;8.45;7.10;;;;;;;;;;5054059;28;20021;-64
2023/02/16 10:18:54;;;;;;;9.13;7.13;;;;;;;;;;5052892;28;20037;-64
2023/02/16 10:21:23;;;;;;;11.18;7.07;;;;;;;;;;5054211;28;20412;-66
2023/02/16 10:24:01;;;;;;;10.80;7.07;;;;;;;;;;5054061;28;20486;-66
2023/02/16 10:26:34;;;;;;;9.13;7.30;;;;;;;;;;5053057;28;20103;-66
2023/02/16 10:29:03;;;;;;;9.93;6.93;;;;;;;;;;5053790;28;20035;-66
2023/02/16 10:31:43;;;;;;;9.13;7.03;;;;;;;;;;5053537;28;20025;-65
2023/02/16 10:34:09;;;;;;;7.78;6.30;;;;;;;;;;5053606;28;20413;-66
2023/02/16 10:36:48;;;;;;;8.48;6.22;;;;;;;;;;5052027;28;20025;-65
2023/02/16 10:39:22;;;;;;;8.35;6.78;;;;;;;;;;5053734;28;20029;-65
2023/02/16 10:41:53;;;;;;;8.88;7.03;;;;;;;;;;5054030;28;20047;-66
2023/02/16 10:44:25;;;;;;;9.27;7.25;;;;;;;;;;5053985;28;20090;-65
2023/02/16 10:46:55;;;;;;;8.65;6.63;;;;;;;;;;5053940;28;20051;-66
2023/02/16 10:49:21;;;;;;;10.85;7.30;;;;;;;;;;5053695;28;20017;-65
2023/02/16 10:51:49;;;;;;;8.65;7.07;;;;;;;;;;5053259;28;20033;-66
2023/02/16 10:54:20;;;;;;;7.10;6.00;;;;;;;;;;5052236;28;20424;-65
2023/02/16 10:56:56;;;;;;;7.32;6.53;;;;;;;;;;5053135;28;20021;-65
2023/02/16 10:59:22;;;;;;;;;;;;;;;;;;5054097;28;20029;-64
2023/02/16 11:01:52;;;;;;;10.95;7.60;;;;;;;;;;5053564;28;20361;-66
2023/02/16 11:04:30;;;;;;;8.05;6.45;;;;;;;;;;5053444;28;20123;-66
2023/02/16 11:07:02;;;;;;;9.75;6.80;;;;;;;;;;5053007;28;20033;-66
2023/02/16 11:09:29;;;;;;;12.18;6.90;;;;;;;;;;5052001;28;20130;-65
2023/02/16 11:11:55;;;;;;;8.75;6.85;;;;;;;;;;5033174;28;20059;-65
2023/02/16 11:14:23;;;;;;;8.50;6.28;;;;;;;;;;5045398;28;20072;-66
2023/02/16 11:17:01;;;;;;;11.13;6.43;;;;;;;;;;5033317;28;20017;-66
2023/02/16 11:19:27;;;;;;;9.43;7.38;;;;;;;;;;5032664;28;20025;-67
2023/02/16 11:21:54;;;;;;;7.53;5.72;;;;;;;;;;5032918;28;20032;-66
2023/02/16 11:24:26;;;;;;;9.27;6.45;;;;;;;;;;5033026;28;20060;-67
2023/02/16 11:27:00;;;;;;;8.95;6.28;;;;;;;;;;5033149;28;20091;-65
2023/02/16 11:29:26;;;;;;;9.43;6.68;;;;;;;;;;5051026;28;20040;-66
2023/02/16 11:31:52;;;;;;;7.03;5.97;;;;;;;;;;5050907;28;20496;-66
2023/02/16 11:34:36;;;;;;;8.45;6.28;;;;;;;;;;5051112;28;20033;-65
2023/02/16 11:37:05;;;;;;;9.13;6.10;;;;;;;;;;5050760;28;20104;-65
2023/02/16 11:39:35;;;;;;;8.10;6.30;;;;;;;;;;5051510;28;20037;-66
2023/02/16 11:42:03;;;;;;;6.82;5.68;;;;;;;;;;5050011;28;20047;-66
2023/02/16 11:44:32;;;;;;;8.65;6.60;;;;;;;;;;5051352;28;20104;-65
2023/02/16 11:46:59;;;;;;;7.90;6.05;;;;;;;;;;5051137;28;20389;-67
2023/02/16 11:49:30;;;;;;;8.75;6.07;;;;;;;;;;5050766;28;20107;-66
2023/02/16 11:51:57;;;;;;;10.48;6.47;;;;;;;;;;5050875;28;20020;-66
2023/02/16 11:54:23;;;;;;;7.57;6.05;;;;;;;;;;5049721;28;20040;-65
2023/02/16 11:57:08;;;;;;;10.15;6.13;;;;;;;;;;5048702;28;20021;-66
2023/02/16 11:59:38;;;;;;;9.55;6.40;;;;;;;;;;5031724;28;20035;-66
2023/02/16 12:02:16;;;;;;;8.35;6.03;;;;;;;;;;5049125;28;20570;-66
2023/02/16 12:05:00;;;;;;;12.35;5.55;;;;;;;;;;5049223;28;20489;-66
2023/02/16 12:07:59;;;;;;;9.30;6.65;;;;;;;;;;5048467;28;20114;-66
2023/02/16 12:10:38;;;;;;;9.82;6.25;;;;;;;;;;5066149;28;20736;-66
2023/02/16 12:13:22;;;;;;;8.10;6.10;;;;;;;;;;5046869;28;20033;-66
2023/02/16 12:16:07;;;;;;;12.75;6.82;;;;;;;;;;5047823;28;20409;-66
2023/02/16 12:18:33;;;;;;;9.98;6.70;;;;;;;;;;5051357;28;20089;-66
2023/02/16 12:21:28;;;;;;;11.27;7.45;;;;;;;;;;5056980;28;20110;-66
2023/02/16 12:24:09;;;;;;;8.50;6.68;;;;;;;;;;5044662;28;20037;-66
2023/02/16 12:26:49;;;;;;;8.80;6.70;;;;;;;;;;5054515;28;20084;-66
2023/02/16 12:29:34;;;;;;;10.35;6.68;;;;;;;;;;5048773;28;20033;-66
2023/02/16 12:32:18;;;;;;;11.15;7.18;;;;;;;;;;5049089;28;20021;-66
2023/02/16 12:34:50;;;;;;;10.55;6.95;;;;;;;;;;5045537;28;20025;-66
2023/02/16 12:37:19;;;;;;;10.70;7.00;;;;;;;;;;5046502;28;20079;-66
2023/02/16 12:40:03;;;;;;;12.50;7.50;;;;;;;;;;5046823;28;20044;-67
2023/02/16 12:42:37;;;;;;;13.65;6.47;;;;;;;;;;5046728;28;20064;-67
2023/02/16 12:45:06;;;;;;;7.90;5.70;;;;;;;;;;5044084;28;20033;-66
2023/02/16 12:47:34;;;;;;;12.27;7.40;;;;;;;;;;5047114;28;20017;-66
2023/02/16 12:50:04;;;;;;;12.90;7.50;;;;;;;;;;5045679;28;20095;-66
2023/02/16 12:52:30;;;;;;;13.63;7.00;;;;;;;;;;5046431;28;20029;-66
2023/02/16 12:55:16;;;;;;;10.05;6.43;;;;;;;;;;5046908;28;20094;-65
2023/02/16 12:57:47;;;;;;;10.88;6.30;;;;;;;;;;5034805;28;20037;-66
2023/02/16 13:00:19;;;;;;;10.75;6.20;;;;;;;;;;5046112;28;20481;-66
2023/02/16 13:02:52;;;;;;;13.75;7.40;;;;;;;;;;5047304;28;20029;-65
2023/02/16 13:05:21;;;;;;;12.25;6.82;;;;;;;;;;5050242;28;20087;-65
2023/02/16 13:07:51;;;;;;;16.10;6.82;;;;;;;;;;5059720;28;20029;-65
2023/02/16 13:10:17;;;;;;;16.35;7.63;;;;;;;;;;5066974;28;20409;-66
2023/02/16 13:12:46;;;;;;;19.33;7.47;;;;;;;;;;5046838;28;20460;-66
2023/02/16 13:15:13;;;;;;;12.20;6.72;;;;;;;;;;5047524;28;20067;-66
2023/02/16 13:18:17;;;;;;;16.80;6.97;;;;;;;;;;5047105;28;20028;-66
2023/02/16 13:20:45;;;;;;;13.70;7.38;;;;;;;;;;5038257;28;20037;-66
2023/02/16 13:23:23;;;;;;;9.15;6.25;;;;;;;;;;5032054;28;20052;-66
2023/02/16 13:25:59;;;;;;;11.20;6.25;;;;;;;;;;5020578;28;20125;-66
2023/02/16 13:28:25;;;;;;;14.23;6.97;;;;;;;;;;5013705;28;20038;-66
2023/02/16 13:31:05;;;;;;;15.82;7.00;;;;;;;;;;5029061;28;20033;-66
2023/02/16 13:33:40;;;;;;;12.05;7.28;;;;;;;;;;5014908;28;20026;-66
2023/02/16 13:36:13;;;;;;;14.20;6.82;;;;;;;;;;5016622;28;20017;-65
2023/02/16 13:38:57;;;;;;;11.98;6.60;;;;;;;;;;5033302;28;20386;-66
2023/02/16 13:41:38;;;;;;;12.65;6.50;;;;;;;;;;5032613;28;20029;-65
2023/02/16 13:44:09;;;;;;;13.60;6.88;;;;;;;;;;5033761;28;20097;-65
2023/02/16 13:46:42;;;;;;;15.52;7.18;;;;;;;;;;5023431;28;20394;-64
2023/02/16 13:49:27;;;;;;;11.02;7.43;;;;;;;;;;5032056;28;20064;-65
2023/02/16 13:51:53;;;;;;;11.88;7.05;;;;;;;;;;5033477;28;20389;-67
2023/02/16 13:54:40;;;;;;;9.52;6.80;;;;;;;;;;5033586;28;20029;-65
2023/02/16 13:57:10;;;;;;;14.88;6.88;;;;;;;;;;5033334;28;20043;-64
2023/02/16 13:59:37;;;;;;;11.70;5.97;;;;;;;;;;5033093;28;20026;-64
2023/02/16 14:02:03;;;;;;;9.27;5.97;;;;;;;;;;5030022;28;20405;-64
2023/02/16 14:04:29;;;;;;;11.60;6.18;;;;;;;;;;5033026;28;20029;-65
2023/02/16 14:07:02;;;;;;;11.95;7.05;;;;;;;;;;5033090;28;20081;-64
2023/02/16 14:09:32;;;;;;;8.65;5.85;;;;;;;;;;5029008;28;20410;-64
2023/02/16 14:12:02;;;;;;;11.20;6.07;;;;;;;;;;5013544;28;20026;-65
2023/02/16 14:14:30;;;;;;;10.13;6.38;;;;;;;;;;5030877;28;20090;-64
2023/02/16 14:17:14;;;;;;;11.10;7.18;;;;;;;;;;5033007;28;20033;-64
2023/02/16 14:20:01;;;;;;;9.25;6.05;;;;;;;;;;5032704;28;20060;-64
2023/02/16 14:22:36;;;;;;;10.00;5.75;;;;;;;;;;5031892;28;20027;-64
2023/02/16 14:25:03;;;;;;;12.95;5.65;;;;;;;;;;5012933;28;20096;-66
2023/02/16 14:27:41;;;;;;;11.63;6.22;;;;;;;;;;5012891;28;20081;-65
2023/02/16 14:30:25;;;;;;;9.20;5.82;;;;;;;;;;5013145;28;20034;-65
2023/02/16 14:33:04;;;;;;;9.85;6.45;;;;;;;;;;5012438;28;20029;-65
2023/02/16 14:35:33;;;;;;;8.73;5.35;;;;;;;;;;5013696;28;20033;-65
2023/02/16 14:38:01;;;;;;;8.23;5.32;;;;;;;;;;5028921;28;20041;-65
2023/02/16 14:40:50;;;;;;;8.90;5.97;;;;;;;;;;5032765;28;20033;-65
2023/02/16 14:43:36;;;;;;;11.95;6.38;;;;;;;;;;5032373;28;20030;-65
2023/02/16 14:46:08;;;;;;;10.95;6.20;;;;;;;;;;5011454;28;20140;-65
2023/02/16 14:49:10;;;;;;;9.63;5.90;;;;;;;;;;5032339;28;20037;-64
2023/02/16 14:51:49;;;;;;;10.27;5.82;;;;;;;;;;5030501;28;20041;-65
2023/02/16 14:54:24;;;;;;;11.52;5.65;;;;;;;;;;5032071;28;20100;-65
2023/02/16 14:57:27;;;;;;;12.30;5.43;;;;;;;;;;5032683;28;20517;-65
2023/02/16 14:59:58;;;;;;;11.85;6.40;;;;;;;;;;5030424;28;20025;-65
2023/02/16 15:02:24;;;;;;;9.00;5.55;;;;;;;;;;5031586;28;20045;-65
2023/02/16 15:04:50;;;;;;;7.35;5.28;;;;;;;;;;5032358;28;20044;-66
2023/02/16 15:07:17;;;;;;;9.80;5.63;;;;;;;;;;5032059;28;20029;-65
2023/02/16 15:09:44;;;;;;;7.60;5.50;;;;;;;;;;5031580;28;20080;-64
2023/02/16 15:12:21;;;;;;;9.18;5.75;;;;;;;;;;5032053;28;20053;-66
2023/02/16 15:14:52;;;;;;;9.18;5.75;;;;;;;;;;5031408;28;20384;-66
2023/02/16 15:17:36;;;;;;;9.68;5.85;;;;;;;;;;5032037;28;20025;-66
2023/02/16 15:20:22;;;;;;;10.30;5.00;;;;;;;;;;5012332;28;20095;-67
2023/02/16 15:22:58;;;;;;;9.05;5.82;;;;;;;;;;5012424;28;20029;-65
2023/02/16 15:25:38;;;;;;;8.43;5.43;;;;;;;;;;5011807;28;20026;-65
2023/02/16 15:28:16;;;;;;;8.95;5.50;;;;;;;;;;5024951;28;20097;-65
2023/02/16 15:30:50;;;;;;;8.57;5.80;;;;;;;;;;5031135;28;20611;-66